sensor_id;sensor_type;location;lat;lon;timestamp;temperature;humidity
10030;DHT22;5055;52.054;8.524;2022-10-16T00:01:42;13.80;97.00
10030;DHT22;5055;52.054;8.524;2022-10-16T00:04:11;13.80;97.00
10030;DHT22;5055;52.054;8.524;2022-10-16T00:06:39;13.80;97.00
10030;DHT22;5055;52.054;8.524;2022-10-16T00:09:08;13.70;97.00
10030;DHT22;5055;52.054;8.524;2022-10-16T00:11:41;13.80;97.00
10030;DHT22;5055;52.054;8.524;2022-10-16T00:14:13;13.70;97.00
10030;DHT22;5055;52.054;8.524;2022-10-16T00:16:42;13.80;97.00
10030;DHT22;5055;52.054;8.524;2022-10-16T00:19:11;13.80;97.00
10030;DHT22;5055;52.054;8.524;2022-10-16T00:21:40;13.80;97.00
10030;DHT22;5055;52.054;8.524;2022-10-16T00:24:10;13.80;97.00
10030;DHT22;5055;52.054;8.524;2022-10-16T00:26:39;13.80;97.00
10030;DHT22;5055;52.054;8.524;2022-10-16T00:29:08;13.80;97.00
10030;DHT22;5055;52.054;8.524;2022-10-16T00:31:38;13.80;97.00
10030;DHT22;5055;52.054;8.524;2022-10-16T00:34:06;13.80;97.00
10030;DHT22;5055;52.054;8.524;2022-10-16T00:36:35;13.80;97.00
10030;DHT22;5055;52.054;8.524;2022-10-16T00:39:03;13.80;97.00
10030;DHT22;5055;52.054;8.524;2022-10-16T00:41:32;13.80;97.00
10030;DHT22;5055;52.054;8.524;2022-10-16T00:44:03;13.70;97.00
10030;DHT22;5055;52.054;8.524;2022-10-16T00:46:37;13.70;97.00
10030;DHT22;5055;52.054;8.524;2022-10-16T00:49:10;13.60;97.00
10030;DHT22;5055;52.054;8.524;2022-10-16T00:51:40;13.50;97.00
10030;DHT22;5055;52.054;8.524;2022-10-16T00:54:11;13.50;97.00
10030;DHT22;5055;52.054;8.524;2022-10-16T00:56:42;13.40;97.00
10030;DHT22;5055;52.054;8.524;2022-10-16T00:59:15;13.40;97.00
10030;DHT22;5055;52.054;8.524;2022-10-16T01:01:43;13.30;97.00
10030;DHT22;5055;52.054;8.524;2022-10-16T01:04:13;13.20;97.00
10030;DHT22;5055;52.054;8.524;2022-10-16T01:06:48;13.10;97.00
10030;DHT22;5055;52.054;8.524;2022-10-16T01:09:22;13.10;97.00
10030;DHT22;5055;52.054;8.524;2022-10-16T01:11:57;13.00;97.00
10030;DHT22;5055;52.054;8.524;2022-10-16T01:14:37;12.90;97.00
10030;DHT22;5055;52.054;8.524;2022-10-16T01:17:12;12.90;97.00
10030;DHT22;5055;52.054;8.524;2022-10-16T01:19:56;12.90;97.00
10030;DHT22;5055;52.054;8.524;2022-10-16T01:22:37;12.90;97.00
10030;DHT22;5055;52.054;8.524;2022-10-16T01:25:11;12.90;97.00
10030;DHT22;5055;52.054;8.524;2022-10-16T01:27:46;12.90;97.00
10030;DHT22;5055;52.054;8.524;2022-10-16T01:30:18;12.90;97.00
10030;DHT22;5055;52.054;8.524;2022-10-16T01:32:52;13.00;97.00
10030;DHT22;5055;52.054;8.524;2022-10-16T01:35:25;13.10;97.00
10030;DHT22;5055;52.054;8.524;2022-10-16T01:37:58;13.10;97.00
10030;DHT22;5055;52.054;8.524;2022-10-16T01:40:28;13.10;97.00
10030;DHT22;5055;52.054;8.524;2022-10-16T01:43:01;13.10;97.00
10030;DHT22;5055;52.054;8.524;2022-10-16T01:45:31;13.10;97.00
10030;DHT22;5055;52.054;8.524;2022-10-16T01:48:02;13.10;97.00
10030;DHT22;5055;52.054;8.524;2022-10-16T01:50:38;13.10;97.00
10030;DHT22;5055;52.054;8.524;2022-10-16T01:53:09;13.10;97.00
10030;DHT22;5055;52.054;8.524;2022-10-16T01:55:41;13.10;97.00
10030;DHT22;5055;52.054;8.524;2022-10-16T01:58:14;13.10;97.00
10030;DHT22;5055;52.054;8.524;2022-10-16T02:00:45;13.10;97.00
10030;DHT22;5055;52.054;8.524;2022-10-16T02:03:17;13.20;97.00
10030;DHT22;5055;52.054;8.524;2022-10-16T02:05:48;13.20;97.00
10030;DHT22;5055;52.054;8.524;2022-10-16T02:08:17;13.20;97.00
10030;DHT22;5055;52.054;8.524;2022-10-16T02:10:49;13.20;97.00
10030;DHT22;5055;52.054;8.524;2022-10-16T02:13:23;13.20;97.00
10030;DHT22;5055;52.054;8.524;2022-10-16T02:15:53;13.10;97.00
10030;DHT22;5055;52.054;8.524;2022-10-16T02:18:22;13.10;97.00
10030;DHT22;5055;52.054;8.524;2022-10-16T02:20:56;13.10;97.00
10030;DHT22;5055;52.054;8.524;2022-10-16T02:23:32;13.00;97.00
10030;DHT22;5055;52.054;8.524;2022-10-16T02:26:07;13.00;97.00
10030;DHT22;5055;52.054;8.524;2022-10-16T02:28:43;12.90;97.00
10030;DHT22;5055;52.054;8.524;2022-10-16T02:31:18;12.90;97.00
10030;DHT22;5055;52.054;8.524;2022-10-16T02:33:51;12.80;97.00
10030;DHT22;5055;52.054;8.524;2022-10-16T02:36:23;12.80;97.00
10030;DHT22;5055;52.054;8.524;2022-10-16T02:38:52;12.80;97.00
10030;DHT22;5055;52.054;8.524;2022-10-16T02:41:21;12.80;97.00
10030;DHT22;5055;52.054;8.524;2022-10-16T02:43:52;12.80;97.00
10030;DHT22;5055;52.054;8.524;2022-10-16T02:46:22;12.80;97.00
10030;DHT22;5055;52.054;8.524;2022-10-16T02:48:50;12.80;97.00
10030;DHT22;5055;52.054;8.524;2022-10-16T02:51:18;12.80;97.00
10030;DHT22;5055;52.054;8.524;2022-10-16T02:54:08;12.80;97.00
10030;DHT22;5055;52.054;8.524;2022-10-16T02:57:02;12.80;97.00
10030;DHT22;5055;52.054;8.524;2022-10-16T02:59:38;12.80;97.00
10030;DHT22;5055;52.054;8.524;2022-10-16T03:02:10;12.80;97.00
10030;DHT22;5055;52.054;8.524;2022-10-16T03:04:39;12.80;97.00
10030;DHT22;5055;52.054;8.524;2022-10-16T03:07:10;12.80;97.00
10030;DHT22;5055;52.054;8.524;2022-10-16T03:09:39;12.80;97.00
10030;DHT22;5055;52.054;8.524;2022-10-16T03:12:07;12.90;97.00
10030;DHT22;5055;52.054;8.524;2022-10-16T03:14:37;12.90;97.00
10030;DHT22;5055;52.054;8.524;2022-10-16T03:17:06;12.90;97.00
10030;DHT22;5055;52.054;8.524;2022-10-16T03:19:35;12.90;97.00
10030;DHT22;5055;52.054;8.524;2022-10-16T03:22:03;12.90;97.00
10030;DHT22;5055;52.054;8.524;2022-10-16T03:24:32;13.00;97.00
10030;DHT22;5055;52.054;8.524;2022-10-16T03:27:00;13.00;97.00
10030;DHT22;5055;52.054;8.524;2022-10-16T03:29:29;12.90;97.00
10030;DHT22;5055;52.054;8.524;2022-10-16T03:32:00;13.00;97.00
10030;DHT22;5055;52.054;8.524;2022-10-16T03:34:29;12.90;97.00
10030;DHT22;5055;52.054;8.524;2022-10-16T03:36:57;13.00;97.00
10030;DHT22;5055;52.054;8.524;2022-10-16T03:39:26;13.00;97.00
10030;DHT22;5055;52.054;8.524;2022-10-16T03:41:55;13.00;97.00
10030;DHT22;5055;52.054;8.524;2022-10-16T03:44:23;13.00;97.00
10030;DHT22;5055;52.054;8.524;2022-10-16T03:46:51;12.90;97.00
10030;DHT22;5055;52.054;8.524;2022-10-16T03:49:21;12.90;97.00
10030;DHT22;5055;52.054;8.524;2022-10-16T03:51:49;12.90;97.00
10030;DHT22;5055;52.054;8.524;2022-10-16T03:54:18;12.90;97.00
10030;DHT22;5055;52.054;8.524;2022-10-16T03:56:46;12.90;97.00
10030;DHT22;5055;52.054;8.524;2022-10-16T03:59:15;12.90;97.00
10030;DHT22;5055;52.054;8.524;2022-10-16T04:01:43;12.90;97.00
10030;DHT22;5055;52.054;8.524;2022-10-16T04:04:12;12.90;97.00
10030;DHT22;5055;52.054;8.524;2022-10-16T04:06:42;13.00;97.00
10030;DHT22;5055;52.054;8.524;2022-10-16T04:09:10;13.00;97.00
10030;DHT22;5055;52.054;8.524;2022-10-16T04:11:39;13.00;97.00
10030;DHT22;5055;52.054;8.524;2022-10-16T04:14:07;13.10;97.00
10030;DHT22;5055;52.054;8.524;2022-10-16T04:16:36;13.10;97.00
10030;DHT22;5055;52.054;8.524;2022-10-16T04:19:04;13.10;97.00
10030;DHT22;5055;52.054;8.524;2022-10-16T04:21:33;13.10;97.00
10030;DHT22;5055;52.054;8.524;2022-10-16T04:24:03;13.10;97.00
10030;DHT22;5055;52.054;8.524;2022-10-16T04:26:32;13.10;97.00
10030;DHT22;5055;52.054;8.524;2022-10-16T04:29:00;13.10;97.00
10030;DHT22;5055;52.054;8.524;2022-10-16T04:31:28;13.20;97.00
10030;DHT22;5055;52.054;8.524;2022-10-16T04:33:57;13.20;97.00
10030;DHT22;5055;52.054;8.524;2022-10-16T04:36:25;13.20;97.00
10030;DHT22;5055;52.054;8.524;2022-10-16T04:38:55;13.20;97.00
10030;DHT22;5055;52.054;8.524;2022-10-16T04:41:25;13.30;97.00
10030;DHT22;5055;52.054;8.524;2022-10-16T04:43:53;13.30;97.00
10030;DHT22;5055;52.054;8.524;2022-10-16T04:46:22;13.30;97.00
10030;DHT22;5055;52.054;8.524;2022-10-16T04:48:50;13.30;97.00
10030;DHT22;5055;52.054;8.524;2022-10-16T04:51:18;13.30;97.00
10030;DHT22;5055;52.054;8.524;2022-10-16T04:53:47;13.30;97.00
10030;DHT22;5055;52.054;8.524;2022-10-16T04:56:15;13.40;97.00
10030;DHT22;5055;52.054;8.524;2022-10-16T04:58:45;13.40;97.00
10030;DHT22;5055;52.054;8.524;2022-10-16T05:01:14;13.40;97.00
10030;DHT22;5055;52.054;8.524;2022-10-16T05:03:42;13.40;97.00
10030;DHT22;5055;52.054;8.524;2022-10-16T05:06:10;13.40;97.00
10030;DHT22;5055;52.054;8.524;2022-10-16T05:08:39;13.50;97.00
10030;DHT22;5055;52.054;8.524;2022-10-16T05:11:07;13.50;97.00
10030;DHT22;5055;52.054;8.524;2022-10-16T05:13:36;13.50;97.00
10030;DHT22;5055;52.054;8.524;2022-10-16T05:16:06;13.60;97.00
10030;DHT22;5055;52.054;8.524;2022-10-16T05:18:40;13.50;97.00
10030;DHT22;5055;52.054;8.524;2022-10-16T05:21:09;13.50;97.00
10030;DHT22;5055;52.054;8.524;2022-10-16T05:23:37;13.50;97.00
10030;DHT22;5055;52.054;8.524;2022-10-16T05:26:06;13.40;97.00
10030;DHT22;5055;52.054;8.524;2022-10-16T05:28:34;13.40;97.00
10030;DHT22;5055;52.054;8.524;2022-10-16T05:31:06;13.40;97.00
10030;DHT22;5055;52.054;8.524;2022-10-16T05:33:34;13.40;97.00
10030;DHT22;5055;52.054;8.524;2022-10-16T05:36:03;13.30;97.00
10030;DHT22;5055;52.054;8.524;2022-10-16T05:38:34;13.30;97.00
10030;DHT22;5055;52.054;8.524;2022-10-16T05:41:03;13.30;97.00
10030;DHT22;5055;52.054;8.524;2022-10-16T05:43:32;13.30;97.00
10030;DHT22;5055;52.054;8.524;2022-10-16T05:46:03;13.30;97.00
10030;DHT22;5055;52.054;8.524;2022-10-16T05:48:33;13.30;97.00
10030;DHT22;5055;52.054;8.524;2022-10-16T05:51:03;13.30;97.00
10030;DHT22;5055;52.054;8.524;2022-10-16T05:53:34;13.30;97.00
10030;DHT22;5055;52.054;8.524;2022-10-16T05:56:04;13.30;97.00
10030;DHT22;5055;52.054;8.524;2022-10-16T05:58:34;13.30;97.00
10030;DHT22;5055;52.054;8.524;2022-10-16T06:01:05;13.30;97.00
10030;DHT22;5055;52.054;8.524;2022-10-16T06:03:35;13.30;97.00
10030;DHT22;5055;52.054;8.524;2022-10-16T06:06:11;13.30;97.00
10030;DHT22;5055;52.054;8.524;2022-10-16T06:08:40;13.30;97.00
10030;DHT22;5055;52.054;8.524;2022-10-16T06:11:10;13.30;97.00
10030;DHT22;5055;52.054;8.524;2022-10-16T06:13:38;13.30;97.00
10030;DHT22;5055;52.054;8.524;2022-10-16T06:16:09;13.30;97.00
10030;DHT22;5055;52.054;8.524;2022-10-16T06:18:40;13.40;97.00
10030;DHT22;5055;52.054;8.524;2022-10-16T06:21:09;13.40;97.00
10030;DHT22;5055;52.054;8.524;2022-10-16T06:23:38;13.40;97.00
10030;DHT22;5055;52.054;8.524;2022-10-16T06:26:07;13.50;97.00
10030;DHT22;5055;52.054;8.524;2022-10-16T06:28:36;13.50;97.00
10030;DHT22;5055;52.054;8.524;2022-10-16T06:31:06;13.60;97.00
10030;DHT22;5055;52.054;8.524;2022-10-16T06:33:35;13.70;97.00
10030;DHT22;5055;52.054;8.524;2022-10-16T06:36:07;13.70;97.00
10030;DHT22;5055;52.054;8.524;2022-10-16T06:38:36;13.80;97.00
10030;DHT22;5055;52.054;8.524;2022-10-16T06:41:06;13.90;97.00
10030;DHT22;5055;52.054;8.524;2022-10-16T06:43:35;14.10;97.00
10030;DHT22;5055;52.054;8.524;2022-10-16T06:46:05;14.20;97.00
10030;DHT22;5055;52.054;8.524;2022-10-16T06:48:34;14.30;97.00
10030;DHT22;5055;52.054;8.524;2022-10-16T06:51:06;14.30;97.00
10030;DHT22;5055;52.054;8.524;2022-10-16T06:53:36;14.30;97.00
10030;DHT22;5055;52.054;8.524;2022-10-16T06:56:17;14.20;97.00
10030;DHT22;5055;52.054;8.524;2022-10-16T06:58:46;14.20;97.00
10030;DHT22;5055;52.054;8.524;2022-10-16T07:01:16;14.20;97.00
10030;DHT22;5055;52.054;8.524;2022-10-16T07:03:45;14.30;97.00
10030;DHT22;5055;52.054;8.524;2022-10-16T07:06:17;14.40;97.00
10030;DHT22;5055;52.054;8.524;2022-10-16T07:08:46;14.40;97.00
10030;DHT22;5055;52.054;8.524;2022-10-16T07:11:16;14.60;97.00
10030;DHT22;5055;52.054;8.524;2022-10-16T07:13:46;15.00;97.00
10030;DHT22;5055;52.054;8.524;2022-10-16T07:16:22;15.10;97.00
10030;DHT22;5055;52.054;8.524;2022-10-16T07:18:51;15.20;97.00
10030;DHT22;5055;52.054;8.524;2022-10-16T07:21:27;15.40;97.00
10030;DHT22;5055;52.054;8.524;2022-10-16T07:23:59;15.80;97.00
10030;DHT22;5055;52.054;8.524;2022-10-16T07:26:30;16.00;97.00
10030;DHT22;5055;52.054;8.524;2022-10-16T07:28:58;16.40;97.00
10030;DHT22;5055;52.054;8.524;2022-10-16T07:31:28;16.60;97.00
10030;DHT22;5055;52.054;8.524;2022-10-16T07:33:58;16.80;97.00
10030;DHT22;5055;52.054;8.524;2022-10-16T07:36:28;16.70;97.00
10030;DHT22;5055;52.054;8.524;2022-10-16T07:38:57;16.60;97.00
10030;DHT22;5055;52.054;8.524;2022-10-16T07:41:26;16.60;97.00
10030;DHT22;5055;52.054;8.524;2022-10-16T07:43:56;16.80;97.00
10030;DHT22;5055;52.054;8.524;2022-10-16T07:46:27;16.70;97.00
10030;DHT22;5055;52.054;8.524;2022-10-16T07:48:56;16.80;97.00
10030;DHT22;5055;52.054;8.524;2022-10-16T07:51:25;16.70;97.00
10030;DHT22;5055;52.054;8.524;2022-10-16T07:53:55;16.70;97.00
10030;DHT22;5055;52.054;8.524;2022-10-16T07:56:24;16.60;97.00
10030;DHT22;5055;52.054;8.524;2022-10-16T07:58:53;16.30;97.00
10030;DHT22;5055;52.054;8.524;2022-10-16T08:01:21;16.20;97.00
10030;DHT22;5055;52.054;8.524;2022-10-16T08:03:51;16.20;97.00
10030;DHT22;5055;52.054;8.524;2022-10-16T08:06:21;16.30;97.00
10030;DHT22;5055;52.054;8.524;2022-10-16T08:08:55;16.50;97.00
10030;DHT22;5055;52.054;8.524;2022-10-16T08:11:23;16.80;97.00
10030;DHT22;5055;52.054;8.524;2022-10-16T08:13:52;16.90;97.00
10030;DHT22;5055;52.054;8.524;2022-10-16T08:16:21;17.10;97.00
10030;DHT22;5055;52.054;8.524;2022-10-16T08:18:53;17.50;97.00
10030;DHT22;5055;52.054;8.524;2022-10-16T08:21:22;17.70;97.00
10030;DHT22;5055;52.054;8.524;2022-10-16T08:23:53;17.80;97.00
10030;DHT22;5055;52.054;8.524;2022-10-16T08:26:26;18.20;97.00
10030;DHT22;5055;52.054;8.524;2022-10-16T08:28:55;18.20;97.00
10030;DHT22;5055;52.054;8.524;2022-10-16T08:31:24;18.30;97.00
10030;DHT22;5055;52.054;8.524;2022-10-16T08:33:54;18.40;97.00
10030;DHT22;5055;52.054;8.524;2022-10-16T08:36:22;18.70;97.00
10030;DHT22;5055;52.054;8.524;2022-10-16T08:38:51;18.80;97.00
10030;DHT22;5055;52.054;8.524;2022-10-16T08:44:25;18.90;97.00
10030;DHT22;5055;52.054;8.524;2022-10-16T08:47:04;18.70;97.00
10030;DHT22;5055;52.054;8.524;2022-10-16T08:49:35;18.90;97.00
10030;DHT22;5055;52.054;8.524;2022-10-16T08:52:07;18.90;97.00
10030;DHT22;5055;52.054;8.524;2022-10-16T08:54:42;18.90;97.00
10030;DHT22;5055;52.054;8.524;2022-10-16T08:57:13;18.80;97.00
10030;DHT22;5055;52.054;8.524;2022-10-16T08:59:50;18.80;97.00
10030;DHT22;5055;52.054;8.524;2022-10-16T09:02:27;19.20;97.00
10030;DHT22;5055;52.054;8.524;2022-10-16T09:05:19;19.50;97.00
10030;DHT22;5055;52.054;8.524;2022-10-16T09:08:00;19.40;97.00
10030;DHT22;5055;52.054;8.524;2022-10-16T09:10:47;19.80;97.00
10030;DHT22;5055;52.054;8.524;2022-10-16T09:13:26;20.00;97.00
10030;DHT22;5055;52.054;8.524;2022-10-16T09:16:03;19.90;97.00
10030;DHT22;5055;52.054;8.524;2022-10-16T09:18:41;20.00;97.00
10030;DHT22;5055;52.054;8.524;2022-10-16T09:21:15;20.10;97.00
10030;DHT22;5055;52.054;8.524;2022-10-16T09:23:45;19.70;97.00
10030;DHT22;5055;52.054;8.524;2022-10-16T09:26:15;19.60;97.00
10030;DHT22;5055;52.054;8.524;2022-10-16T09:28:45;19.80;97.00
10030;DHT22;5055;52.054;8.524;2022-10-16T09:31:20;19.80;97.00
10030;DHT22;5055;52.054;8.524;2022-10-16T09:33:52;20.00;97.00
10030;DHT22;5055;52.054;8.524;2022-10-16T09:36:23;19.90;97.00
10030;DHT22;5055;52.054;8.524;2022-10-16T09:39:03;20.00;97.00
10030;DHT22;5055;52.054;8.524;2022-10-16T09:41:34;19.90;97.00
10030;DHT22;5055;52.054;8.524;2022-10-16T09:44:06;19.60;97.00
10030;DHT22;5055;52.054;8.524;2022-10-16T09:46:45;19.70;97.00
10030;DHT22;5055;52.054;8.524;2022-10-16T09:49:21;19.60;97.00
10030;DHT22;5055;52.054;8.524;2022-10-16T09:51:51;19.50;97.00
10030;DHT22;5055;52.054;8.524;2022-10-16T09:54:30;19.80;97.00
10030;DHT22;5055;52.054;8.524;2022-10-16T09:57:05;19.70;97.00
10030;DHT22;5055;52.054;8.524;2022-10-16T09:59:34;19.70;97.00
10030;DHT22;5055;52.054;8.524;2022-10-16T10:02:10;19.70;97.00
10030;DHT22;5055;52.054;8.524;2022-10-16T10:04:41;19.50;97.00
10030;DHT22;5055;52.054;8.524;2022-10-16T10:07:18;19.70;97.00
10030;DHT22;5055;52.054;8.524;2022-10-16T10:09:47;19.60;97.00
10030;DHT22;5055;52.054;8.524;2022-10-16T10:12:18;19.20;97.00
10030;DHT22;5055;52.054;8.524;2022-10-16T10:14:53;19.30;97.00
10030;DHT22;5055;52.054;8.524;2022-10-16T10:17:26;19.60;97.00
10030;DHT22;5055;52.054;8.524;2022-10-16T10:19:56;19.50;97.00
10030;DHT22;5055;52.054;8.524;2022-10-16T10:22:29;19.30;97.00
10030;DHT22;5055;52.054;8.524;2022-10-16T10:25:07;19.20;97.00
10030;DHT22;5055;52.054;8.524;2022-10-16T10:27:50;19.00;97.00
10030;DHT22;5055;52.054;8.524;2022-10-16T10:30:25;19.60;97.00
10030;DHT22;5055;52.054;8.524;2022-10-16T10:33:09;20.00;97.00
10030;DHT22;5055;52.054;8.524;2022-10-16T10:35:44;20.20;97.00
10030;DHT22;5055;52.054;8.524;2022-10-16T10:38:27;20.30;97.00
10030;DHT22;5055;52.054;8.524;2022-10-16T10:41:12;20.70;97.00
10030;DHT22;5055;52.054;8.524;2022-10-16T10:43:53;20.80;97.00
10030;DHT22;5055;52.054;8.524;2022-10-16T10:46:31;21.30;97.00
10030;DHT22;5055;52.054;8.524;2022-10-16T10:49:19;21.70;97.00
10030;DHT22;5055;52.054;8.524;2022-10-16T10:51:59;21.60;97.00
10030;DHT22;5055;52.054;8.524;2022-10-16T10:54:35;21.20;97.00
10030;DHT22;5055;52.054;8.524;2022-10-16T10:57:10;20.80;97.00
10030;DHT22;5055;52.054;8.524;2022-10-16T11:02:48;20.20;97.00
10030;DHT22;5055;52.054;8.524;2022-10-16T11:05:30;20.60;97.00
10030;DHT22;5055;52.054;8.524;2022-10-16T11:08:02;20.40;97.00
10030;DHT22;5055;52.054;8.524;2022-10-16T11:10:42;20.30;97.00
10030;DHT22;5055;52.054;8.524;2022-10-16T11:13:20;20.30;97.00
10030;DHT22;5055;52.054;8.524;2022-10-16T11:15:53;20.20;97.00
10030;DHT22;5055;52.054;8.524;2022-10-16T11:18:28;20.40;97.00
10030;DHT22;5055;52.054;8.524;2022-10-16T11:21:04;20.30;97.00
10030;DHT22;5055;52.054;8.524;2022-10-16T11:23:37;20.20;97.00
10030;DHT22;5055;52.054;8.524;2022-10-16T11:26:14;20.10;97.00
10030;DHT22;5055;52.054;8.524;2022-10-16T11:28:48;20.10;97.00
10030;DHT22;5055;52.054;8.524;2022-10-16T11:31:22;20.10;97.00
10030;DHT22;5055;52.054;8.524;2022-10-16T11:33:59;20.00;97.00
10030;DHT22;5055;52.054;8.524;2022-10-16T11:36:36;20.00;97.00
10030;DHT22;5055;52.054;8.524;2022-10-16T11:39:16;19.90;97.00
10030;DHT22;5055;52.054;8.524;2022-10-16T11:41:50;19.70;97.00
10030;DHT22;5055;52.054;8.524;2022-10-16T11:44:35;19.70;97.00
10030;DHT22;5055;52.054;8.524;2022-10-16T11:47:16;19.60;97.00
10030;DHT22;5055;52.054;8.524;2022-10-16T11:50:28;19.40;97.00
10030;DHT22;5055;52.054;8.524;2022-10-16T11:53:03;19.10;97.00
10030;DHT22;5055;52.054;8.524;2022-10-16T11:55:35;19.10;97.00
10030;DHT22;5055;52.054;8.524;2022-10-16T11:58:19;19.20;97.00
10030;DHT22;5055;52.054;8.524;2022-10-16T12:00:55;19.50;97.00
10030;DHT22;5055;52.054;8.524;2022-10-16T12:03:29;19.80;97.00
10030;DHT22;5055;52.054;8.524;2022-10-16T12:06:25;20.10;97.00
10030;DHT22;5055;52.054;8.524;2022-10-16T12:08:59;20.20;97.00
10030;DHT22;5055;52.054;8.524;2022-10-16T12:11:36;20.20;97.00
10030;DHT22;5055;52.054;8.524;2022-10-16T12:17:35;20.10;97.00
10030;DHT22;5055;52.054;8.524;2022-10-16T12:20:23;20.70;97.00
10030;DHT22;5055;52.054;8.524;2022-10-16T12:22:54;21.20;97.00
10030;DHT22;5055;52.054;8.524;2022-10-16T12:25:27;21.70;97.00
10030;DHT22;5055;52.054;8.524;2022-10-16T12:27:59;22.10;97.00
10030;DHT22;5055;52.054;8.524;2022-10-16T12:30:31;22.30;97.00
10030;DHT22;5055;52.054;8.524;2022-10-16T12:33:04;22.90;97.00
10030;DHT22;5055;52.054;8.524;2022-10-16T12:35:35;23.40;97.00
10030;DHT22;5055;52.054;8.524;2022-10-16T12:38:19;23.50;97.00
10030;DHT22;5055;52.054;8.524;2022-10-16T12:40:58;24.00;97.00
10030;DHT22;5055;52.054;8.524;2022-10-16T12:43:36;24.10;97.00
10030;DHT22;5055;52.054;8.524;2022-10-16T12:46:24;24.40;97.00
10030;DHT22;5055;52.054;8.524;2022-10-16T12:48:52;24.40;97.00
10030;DHT22;5055;52.054;8.524;2022-10-16T12:51:36;24.60;97.00
10030;DHT22;5055;52.054;8.524;2022-10-16T12:54:11;25.00;97.00
10030;DHT22;5055;52.054;8.524;2022-10-16T12:56:52;25.00;97.00
10030;DHT22;5055;52.054;8.524;2022-10-16T12:59:32;24.80;97.00
10030;DHT22;5055;52.054;8.524;2022-10-16T13:02:19;24.40;97.00
10030;DHT22;5055;52.054;8.524;2022-10-16T13:05:09;24.90;97.00
10030;DHT22;5055;52.054;8.524;2022-10-16T13:07:52;25.30;97.00
10030;DHT22;5055;52.054;8.524;2022-10-16T13:10:28;24.70;97.00
10030;DHT22;5055;52.054;8.524;2022-10-16T13:16:12;25.00;97.00
10030;DHT22;5055;52.054;8.524;2022-10-16T13:18:56;25.10;97.00
10030;DHT22;5055;52.054;8.524;2022-10-16T13:21:34;24.70;97.00
10030;DHT22;5055;52.054;8.524;2022-10-16T13:24:13;24.50;97.00
10030;DHT22;5055;52.054;8.524;2022-10-16T13:26:52;25.20;97.00
10030;DHT22;5055;52.054;8.524;2022-10-16T13:29:52;25.60;97.00
10030;DHT22;5055;52.054;8.524;2022-10-16T13:35:34;24.80;97.00
10030;DHT22;5055;52.054;8.524;2022-10-16T13:38:13;24.00;97.00
10030;DHT22;5055;52.054;8.524;2022-10-16T13:40:51;23.40;97.00
10030;DHT22;5055;52.054;8.524;2022-10-16T13:43:52;22.70;97.00
10030;DHT22;5055;52.054;8.524;2022-10-16T13:46:37;22.30;97.00
10030;DHT22;5055;52.054;8.524;2022-10-16T13:49:34;21.90;97.00
10030;DHT22;5055;52.054;8.524;2022-10-16T13:52:20;21.30;97.00
10030;DHT22;5055;52.054;8.524;2022-10-16T13:54:56;21.10;97.00
10030;DHT22;5055;52.054;8.524;2022-10-16T13:57:40;21.90;97.00
10030;DHT22;5055;52.054;8.524;2022-10-16T14:00:26;22.70;97.00
10030;DHT22;5055;52.054;8.524;2022-10-16T14:03:23;23.60;97.00
10030;DHT22;5055;52.054;8.524;2022-10-16T14:06:21;24.10;97.00
10030;DHT22;5055;52.054;8.524;2022-10-16T14:09:09;24.30;97.00
10030;DHT22;5055;52.054;8.524;2022-10-16T14:12:01;24.10;97.00
10030;DHT22;5055;52.054;8.524;2022-10-16T14:14:48;24.60;97.00
10030;DHT22;5055;52.054;8.524;2022-10-16T14:17:34;24.80;97.00
10030;DHT22;5055;52.054;8.524;2022-10-16T14:20:27;24.80;97.00
10030;DHT22;5055;52.054;8.524;2022-10-16T14:23:28;25.20;97.00
10030;DHT22;5055;52.054;8.524;2022-10-16T14:26:17;25.80;97.00
10030;DHT22;5055;52.054;8.524;2022-10-16T14:29:21;26.20;97.00
10030;DHT22;5055;52.054;8.524;2022-10-16T14:32:29;26.30;97.00
10030;DHT22;5055;52.054;8.524;2022-10-16T14:38:22;26.10;97.00
10030;DHT22;5055;52.054;8.524;2022-10-16T14:41:27;26.50;97.00
10030;DHT22;5055;52.054;8.524;2022-10-16T14:44:33;26.10;97.00
10030;DHT22;5055;52.054;8.524;2022-10-16T14:47:25;25.70;97.00
10030;DHT22;5055;52.054;8.524;2022-10-16T14:50:07;26.00;97.00
10030;DHT22;5055;52.054;8.524;2022-10-16T14:53:01;26.00;97.00
10030;DHT22;5055;52.054;8.524;2022-10-16T14:56:06;26.00;97.00
10030;DHT22;5055;52.054;8.524;2022-10-16T14:59:03;25.30;97.00
10030;DHT22;5055;52.054;8.524;2022-10-16T15:05:12;23.90;97.00
10030;DHT22;5055;52.054;8.524;2022-10-16T15:08:20;23.20;97.00
10030;DHT22;5055;52.054;8.524;2022-10-16T15:11:34;22.90;97.00
10030;DHT22;5055;52.054;8.524;2022-10-16T15:14:38;22.90;97.00
10030;DHT22;5055;52.054;8.524;2022-10-16T15:17:38;22.80;97.00
10030;DHT22;5055;52.054;8.524;2022-10-16T15:20:26;22.50;97.00
10030;DHT22;5055;52.054;8.524;2022-10-16T15:23:32;22.20;97.00
10030;DHT22;5055;52.054;8.524;2022-10-16T15:26:45;21.90;97.00
10030;DHT22;5055;52.054;8.524;2022-10-16T15:29:38;21.40;97.00
10030;DHT22;5055;52.054;8.524;2022-10-16T15:32:32;21.00;97.00
10030;DHT22;5055;52.054;8.524;2022-10-16T15:35:38;20.80;97.00
10030;DHT22;5055;52.054;8.524;2022-10-16T15:38:16;20.60;97.00
10030;DHT22;5055;52.054;8.524;2022-10-16T15:41:21;20.40;97.00
10030;DHT22;5055;52.054;8.524;2022-10-16T15:44:01;20.10;97.00
10030;DHT22;5055;52.054;8.524;2022-10-16T15:46:43;19.90;97.00
10030;DHT22;5055;52.054;8.524;2022-10-16T15:49:45;19.70;97.00
10030;DHT22;5055;52.054;8.524;2022-10-16T15:52:33;19.50;97.00
10030;DHT22;5055;52.054;8.524;2022-10-16T15:55:26;19.30;97.00
10030;DHT22;5055;52.054;8.524;2022-10-16T15:58:49;19.00;97.00
10030;DHT22;5055;52.054;8.524;2022-10-16T16:01:58;18.70;97.00
10030;DHT22;5055;52.054;8.524;2022-10-16T16:05:11;18.50;97.00
10030;DHT22;5055;52.054;8.524;2022-10-16T16:11:46;18.30;97.00
10030;DHT22;5055;52.054;8.524;2022-10-16T16:14:46;18.10;97.00
10030;DHT22;5055;52.054;8.524;2022-10-16T16:17:51;18.00;97.00
10030;DHT22;5055;52.054;8.524;2022-10-16T16:20:44;17.90;97.00
10030;DHT22;5055;52.054;8.524;2022-10-16T16:23:26;17.90;97.00
10030;DHT22;5055;52.054;8.524;2022-10-16T16:26:40;17.80;97.00
10030;DHT22;5055;52.054;8.524;2022-10-16T16:29:47;17.70;97.00
10030;DHT22;5055;52.054;8.524;2022-10-16T16:32:40;17.50;97.00
10030;DHT22;5055;52.054;8.524;2022-10-16T16:35:46;17.50;97.00
10030;DHT22;5055;52.054;8.524;2022-10-16T16:39:02;17.40;97.00
10030;DHT22;5055;52.054;8.524;2022-10-16T16:42:03;17.40;97.00
10030;DHT22;5055;52.054;8.524;2022-10-16T16:44:47;17.30;97.00
10030;DHT22;5055;52.054;8.524;2022-10-16T16:47:25;17.30;97.00
10030;DHT22;5055;52.054;8.524;2022-10-16T16:50:22;17.20;97.00
10030;DHT22;5055;52.054;8.524;2022-10-16T16:53:43;17.20;97.00
10030;DHT22;5055;52.054;8.524;2022-10-16T16:56:59;17.10;97.00
10030;DHT22;5055;52.054;8.524;2022-10-16T17:00:01;17.00;97.00
10030;DHT22;5055;52.054;8.524;2022-10-16T17:03:03;17.00;97.00
10030;DHT22;5055;52.054;8.524;2022-10-16T17:05:56;16.90;97.00
10030;DHT22;5055;52.054;8.524;2022-10-16T17:08:46;16.80;97.00
10030;DHT22;5055;52.054;8.524;2022-10-16T17:11:33;16.70;97.00
10030;DHT22;5055;52.054;8.524;2022-10-16T17:14:17;16.60;97.00